Time;durP1;ratioP1;P1;durP2;ratioP2;P2;SDS_P1;SDS_P2;PMS_P1;PMS_P2;Temp;Humidity;BMP_temperature;BMP_pressure;BME280_temperature;BME280_humidity;BME280_pressure;Samples;Min_cycle;Max_cycle;Signal;HPM_P1;HPM_P2
2023/12/31 00:00:08;;;;;;;;;;;8.90;56.50;;;7.51;58.89;100933.75;12253245;19;19939;-83
2023/12/31 00:04:10;;;;;;;;;;;9.00;56.50;;;7.53;58.99;100935.38;12248832;19;19954;-83
2023/12/31 00:08:13;;;;;;;;;;;9.00;56.50;;;7.43;58.89;100909.81;12250458;19;20135;-83
2023/12/31 00:12:15;;;;;;;;;;;9.00;56.50;;;7.11;58.72;100851.34;12254350;19;19924;-83
2023/12/31 00:16:16;;;;;;;;;;;9.10;56.60;;;7.57;58.89;100915.31;12251848;19;19915;-84
2023/12/31 00:20:17;;;;;;;;;;;9.00;56.60;;;7.55;59.00;100914.53;12254366;19;20318;-83
2023/12/31 00:24:19;;;;;;;;;;;9.10;56.60;;;7.50;59.02;100904.28;12252828;19;19932;-83
2023/12/31 00:28:20;;;;;;;;;;;9.10;56.60;;;7.58;58.79;100903.16;12249735;19;19978;-83
2023/12/31 00:32:22;;;;;;;;;;;9.10;56.60;;;7.55;58.85;100891.13;12254349;19;20329;-83
2023/12/31 00:36:24;;;;;;;;;;;9.10;56.60;;;7.52;59.02;100881.72;12250215;19;19942;-83
2023/12/31 00:40:26;;;;;;;;;;;9.10;56.60;;;7.53;58.81;100878.22;12252250;19;19934;-83
2023/12/31 00:44:27;;;;;;;;;;;9.10;56.60;;;7.62;58.99;100891.75;12252422;19;19915;-83
2023/12/31 00:48:29;;;;;;;;;;;9.10;56.60;;;7.57;58.91;100885.88;12249033;19;19927;-83
2023/12/31 00:52:30;;;;;;;;;;;9.10;56.60;;;7.64;59.08;100889.91;12251938;19;20290;-83
2023/12/31 00:56:32;;;;;;;;;;;9.10;56.60;;;7.63;59.09;100889.06;12249233;19;19918;-83
2023/12/31 01:00:33;;;;;;;;;;;9.20;56.60;;;7.66;58.97;100882.91;12250891;19;19952;-83
2023/12/31 01:04:36;;;;;;;;;;;9.10;56.60;;;7.70;59.07;100893.13;12252312;19;20285;-83
2023/12/31 01:08:37;;;;;;;;;;;9.10;56.60;;;7.62;59.00;100871.81;12248712;19;19918;-83
2023/12/31 01:12:39;;;;;;;;;;;9.20;56.70;;;7.70;59.02;100879.28;12249707;19;20248;-83
2023/12/31 01:16:41;;;;;;;;;;;9.20;56.70;;;7.69;58.96;100878.41;12248284;19;19918;-83
2023/12/31 01:20:43;;;;;;;;;;;9.10;56.60;;;7.48;59.08;100838.56;12248597;19;19923;-83
2023/12/31 01:24:45;;;;;;;;;;;9.10;56.60;;;7.73;58.93;100876.56;12247651;19;19953;-83
2023/12/31 01:28:46;;;;;;;;;;;9.20;56.60;;;7.69;59.13;100872.38;12249322;19;19923;-83
2023/12/31 01:32:49;;;;;;;;;;;9.20;56.60;;;7.72;59.08;100869.66;12249348;19;19930;-83
2023/12/31 01:36:51;;;;;;;;;;;9.20;56.60;;;7.63;59.07;100851.84;12246914;19;19980;-84
2023/12/31 01:40:53;;;;;;;;;;;9.20;56.50;;;7.67;58.86;100863.78;12247504;19;19919;-83
2023/12/31 01:44:55;;;;;;;;;;;9.40;56.50;;;7.64;58.88;100859.59;12247429;19;19922;-83
2023/12/31 01:48:58;;;;;;;;;;;9.40;56.40;;;7.67;58.92;100856.00;12248466;19;19950;-84
2023/12/31 01:52:59;;;;;;;;;;;9.10;56.40;;;7.53;58.80;100835.78;12247274;19;19935;-83
2023/12/31 01:57:01;;;;;;;;;;;9.20;56.30;;;7.63;59.03;100851.84;12242421;19;19941;-83
2023/12/31 02:01:04;;;;;;;;;;;9.10;56.30;;;7.54;58.93;100848.72;12246117;19;19962;-83
2023/12/31 02:05:06;;;;;;;;;;;9.00;56.20;;;7.57;59.13;100852.09;12245827;19;19919;-83
2023/12/31 02:09:09;;;;;;;;;;;9.00;56.30;;;7.40;58.95;100817.25;12244765;19;19954;-83
2023/12/31 02:13:11;;;;;;;;;;;9.00;56.30;;;7.48;58.92;100835.97;12241432;19;19922;-83
2023/12/31 02:17:12;;;;;;;;;;;9.00;56.20;;;7.20;58.71;100796.44;12244108;19;20366;-83
2023/12/31 02:21:14;;;;;;;;;;;8.90;56.10;;;7.41;58.90;100828.50;12246272;19;19926;-83
2023/12/31 02:25:18;;;;;;;;;;;8.90;56.10;;;7.44;59.03;100839.59;12245033;19;20001;-83
2023/12/31 02:29:20;;;;;;;;;;;8.90;56.00;;;7.41;58.70;100831.94;12245909;19;19914;-83
2023/12/31 02:33:21;;;;;;;;;;;8.90;56.00;;;7.19;58.70;100797.34;12247533;19;20234;-83
2023/12/31 02:37:24;;;;;;;;;;;8.80;56.00;;;7.25;58.77;100812.66;12245175;19;19922;-83
2023/12/31 02:41:26;;;;;;;;;;;8.70;55.90;;;7.14;58.65;100794.91;12244705;19;19938;-84
2023/12/31 02:45:28;;;;;;;;;;;8.70;55.90;;;7.06;58.88;100799.56;12244548;19;19933;-83
2023/12/31 02:49:29;;;;;;;;;;;8.60;55.80;;;7.02;58.82;100788.47;12245469;19;19918;-83
2023/12/31 02:53:31;;;;;;;;;;;8.60;55.80;;;7.11;58.89;100810.63;12246164;19;19937;-83
2023/12/31 02:57:34;;;;;;;;;;;8.50;55.90;;;7.04;58.88;100802.22;12244474;19;19931;-83
2023/12/31 03:01:36;;;;;;;;;;;8.50;55.90;;;7.05;58.80;100803.09;12244309;19;19922;-83
2023/12/31 03:05:37;;;;;;;;;;;8.70;56.10;;;6.79;59.03;100755.63;12246001;19;20316;-83
2023/12/31 03:09:39;;;;;;;;;;;8.40;55.90;;;6.99;58.95;100787.72;12244074;19;19914;-83
2023/12/31 03:13:41;;;;;;;;;;;8.40;55.90;;;6.92;58.91;100776.75;12244483;19;20302;-83
2023/12/31 03:17:43;;;;;;;;;;;8.40;55.90;;;6.84;58.68;100774.44;12246528;19;19923;-83
2023/12/31 03:21:44;;;;;;;;;;;8.30;55.90;;;6.86;58.86;100770.06;12254901;19;19935;-83
2023/12/31 03:25:46;;;;;;;;;;;8.30;55.90;;;6.74;58.84;100752.34;12255395;19;19919;-83
2023/12/31 03:29:49;;;;;;;;;;;8.20;55.80;;;6.57;58.82;100740.03;12256243;19;20344;-83
2023/12/31 03:33:50;;;;;;;;;;;8.20;55.80;;;6.77;58.81;100779.94;12254916;19;19941;-83
2023/12/31 03:37:52;;;;;;;;;;;8.10;55.80;;;6.72;58.74;100780.09;12252669;19;19919;-83
2023/12/31 03:41:54;;;;;;;;;;;8.10;55.80;;;6.53;58.58;100754.00;12253206;19;19957;-83
2023/12/31 03:45:57;;;;;;;;;;;8.00;55.80;;;6.62;58.76;100771.00;12252807;19;20354;-83
2023/12/31 03:49:59;;;;;;;;;;;8.00;55.80;;;6.51;58.67;100745.47;12254941;19;19919;-83
2023/12/31 03:54:00;;;;;;;;;;;7.90;55.70;;;6.52;58.71;100754.94;12253849;19;19925;-83
2023/12/31 03:58:02;;;;;;;;;;;7.90;55.70;;;6.34;58.80;100743.47;12251983;19;19983;-83
2023/12/31 04:02:04;;;;;;;;;;;7.90;55.70;;;6.39;58.71;100751.94;12252960;19;19907;-83
2023/12/31 04:06:07;;;;;;;;;;;8.00;55.90;;;6.34;58.76;100746.09;12253280;19;19911;-83
2023/12/31 04:10:09;;;;;;;;;;;7.80;55.80;;;6.25;58.59;100733.47;12255319;19;20266;-83
2023/12/31 04:14:10;;;;;;;;;;;7.70;55.80;;;6.30;58.70;100733.31;12253291;19;19926;-83
2023/12/31 04:18:12;;;;;;;;;;;7.70;55.80;;;6.24;58.72;100720.53;12250591;19;19923;-83
2023/12/31 04:22:14;;;;;;;;;;;7.60;55.80;;;6.17;58.86;100715.59;12250759;19;19915;-83
2023/12/31 04:26:15;;;;;;;;;;;7.70;55.80;;;6.09;58.55;100696.88;12250849;19;19914;-83
2023/12/31 04:30:20;;;;;;;;;;;7.60;55.80;;;6.06;58.58;100703.94;12251205;19;19911;-83
2023/12/31 04:34:23;;;;;;;;;;;7.50;55.80;;;6.14;58.80;100720.06;12250784;19;20292;-83
2023/12/31 04:38:25;;;;;;;;;;;7.50;55.80;;;6.06;58.84;100702.19;12247480;19;20266;-83
2023/12/31 04:42:27;;;;;;;;;;;7.50;55.90;;;6.01;58.82;100704.09;12249607;19;19930;-83
2023/12/31 04:46:28;;;;;;;;;;;7.40;55.90;;;5.67;58.68;100642.25;12248539;19;19911;-83
2023/12/31 04:50:30;;;;;;;;;;;7.50;56.00;;;5.98;58.79;100699.03;12253184;19;19911;-83
2023/12/31 04:54:31;;;;;;;;;;;7.40;56.00;;;6.00;58.71;100699.84;12249275;19;19938;-83
2023/12/31 04:58:33;;;;;;;;;;;7.40;56.00;;;5.84;58.70;100670.16;12247858;19;19919;-83
2023/12/31 05:02:34;;;;;;;;;;;7.30;56.00;;;5.93;58.68;100672.41;12250029;19;19956;-83
2023/12/31 05:06:36;;;;;;;;;;;7.30;56.00;;;5.95;58.69;100679.25;12249537;19;19972;-83
2023/12/31 05:10:37;;;;;;;;;;;7.40;56.00;;;5.91;58.86;100671.63;12251791;19;19927;-84
2023/12/31 05:14:39;;;;;;;;;;;7.30;55.90;;;5.93;58.76;100672.41;12251744;19;19979;-83
2023/12/31 05:18:46;;;;;;;;;;;7.30;56.00;;;5.76;58.87;100650.56;12248925;19;20222;-83
2023/12/31 05:22:48;;;;;;;;;;;7.30;56.00;;;5.69;58.78;100635.28;12248142;19;19914;-83
2023/12/31 05:26:49;;;;;;;;;;;7.30;56.10;;;5.70;59.00;100637.81;12247750;19;19936;-83
2023/12/31 05:30:51;;;;;;;;;;;7.30;56.10;;;5.89;58.87;100656.13;12251374;19;19923;-83
2023/12/31 05:34:53;;;;;;;;;;;7.30;56.10;;;5.64;58.68;100626.81;12249419;19;19932;-83
2023/12/31 05:38:54;;;;;;;;;;;7.30;55.90;;;5.74;58.76;100634.22;12251673;19;19919;-83
2023/12/31 05:42:56;;;;;;;;;;;7.30;56.00;;;5.75;58.96;100635.03;12248569;19;19932;-83
2023/12/31 05:46:58;;;;;;;;;;;7.30;56.00;;;5.79;59.00;100643.56;12248836;19;19932;-83
2023/12/31 05:50:59;;;;;;;;;;;7.20;56.10;;;5.79;58.87;100641.00;12250077;19;20373;-83
2023/12/31 05:55:01;;;;;;;;;;;7.20;56.20;;;5.77;59.12;100628.06;12244997;19;20369;-83
2023/12/31 05:59:06;;;;;;;;;;;7.30;56.40;;;5.89;58.84;100631.97;12243229;19;20261;-83
2023/12/31 06:03:08;;;;;;;;;;;7.30;56.40;;;5.86;58.86;100617.38;12246889;19;20425;-83
2023/12/31 06:07:10;;;;;;;;;;;7.40;56.50;;;5.90;58.98;100610.34;12247462;19;19935;-83
2023/12/31 06:11:11;;;;;;;;;;;7.30;56.40;;;5.94;58.98;100609.31;12245728;19;19915;-83
2023/12/31 06:15:12;;;;;;;;;;;7.40;56.50;;;5.99;58.96;100617.78;12247248;19;19925;-84
2023/12/31 06:19:14;;;;;;;;;;;7.40;56.50;;;5.97;58.85;100609.25;12246014;19;20333;-83
2023/12/31 06:23:16;;;;;;;;;;;7.50;56.50;;;5.89;59.00;100587.91;12244232;19;19940;-83
2023/12/31 06:27:17;;;;;;;;;;;7.50;56.60;;;6.07;59.20;100604.53;12242548;19;19919;-83
2023/12/31 06:31:19;;;;;;;;;;;7.50;56.70;;;6.05;59.18;100588.19;12246996;19;19920;-83
2023/12/31 06:35:20;;;;;;;;;;;7.60;56.70;;;6.09;58.92;100592.38;12246555;19;19932;-83
2023/12/31 06:39:22;;;;;;;;;;;7.60;56.70;;;6.13;59.12;100602.56;12246636;19;19931;-83
2023/12/31 06:43:23;;;;;;;;;;;7.60;56.70;;;6.14;59.18;100591.28;12241073;19;19911;-83
2023/12/31 06:47:24;;;;;;;;;;;7.60;56.70;;;6.22;59.16;100597.91;12243859;19;19926;-83
2023/12/31 06:51:26;;;;;;;;;;;7.70;56.80;;;6.14;59.32;100587.84;12246067;19;20336;-83
2023/12/31 06:55:27;;;;;;;;;;;7.70;56.80;;;6.12;59.34;100574.94;12255947;19;19926;-84
2023/12/31 06:59:29;;;;;;;;;;;7.90;57.00;;;6.34;59.33;100607.78;12259116;19;19934;-83
2023/12/31 07:03:31;;;;;;;;;;;7.80;56.90;;;6.37;59.20;100603.34;12248009;19;20282;-85
2023/12/31 07:07:33;;;;;;;;;;;7.80;57.00;;;6.18;59.25;100560.88;12255218;19;19907;-85
2023/12/31 07:11:35;;;;;;;;;;;7.80;57.00;;;6.44;59.22;100601.34;12258132;19;19974;-84
2023/12/31 07:15:37;;;;;;;;;;;7.90;57.00;;;6.46;59.13;100590.91;12250578;19;19911;-84
2023/12/31 07:19:39;;;;;;;;;;;7.90;57.00;;;6.43;59.44;100581.50;12256134;19;19914;-85
2023/12/31 07:23:40;;;;;;;;;;;8.00;57.00;;;6.49;59.43;100576.06;12250007;19;19907;-85
2023/12/31 07:27:42;;;;;;;;;;;8.00;56.90;;;6.41;59.22;100567.75;12252733;19;19943;-84
2023/12/31 07:31:43;;;;;;;;;;;8.00;57.00;;;6.49;59.46;100576.06;12256187;19;19967;-85
2023/12/31 07:35:45;;;;;;;;;;;8.00;57.00;;;6.56;59.31;100568.84;12257128;19;19935;-84
2023/12/31 07:39:47;;;;;;;;;;;8.10;56.90;;;6.47;59.30;100548.50;12255675;19;20003;-84
2023/12/31 07:43:49;;;;;;;;;;;8.10;56.90;;;6.55;59.48;100565.44;12253145;19;19915;-84
2023/12/31 07:47:50;;;;;;;;;;;8.10;57.10;;;6.56;59.40;100566.25;12251210;19;19967;-83
2023/12/31 07:51:51;;;;;;;;;;;8.10;57.20;;;6.64;59.39;100562.47;12256403;19;19923;-85
2023/12/31 07:55:53;;;;;;;;;;;8.10;57.20;;;6.57;59.38;100545.47;12253818;19;19919;-84
2023/12/31 07:59:54;;;;;;;;;;;8.20;57.30;;;6.73;59.59;100569.03;12255629;19;19926;-84
2023/12/31 08:03:56;;;;;;;;;;;8.30;57.30;;;6.79;59.59;100573.13;12251397;19;20002;-83
2023/12/31 08:07:57;;;;;;;;;;;8.30;57.40;;;6.60;59.67;100536.72;12251349;19;19926;-84
2023/12/31 08:11:59;;;;;;;;;;;8.30;57.40;;;6.77;59.73;100543.78;12254108;19;19941;-84
2023/12/31 08:16:03;;;;;;;;;;;8.40;57.50;;;6.96;59.41;100575.81;12253993;19;20651;-83
2023/12/31 08:20:05;;;;;;;;;;;8.60;57.50;;;6.96;59.56;100562.00;12255539;19;20396;-83
2023/12/31 08:24:07;;;;;;;;;;;8.50;57.40;;;6.89;59.57;100547.63;12251002;19;20406;-86
2023/12/31 08:28:08;;;;;;;;;;;8.50;57.50;;;6.94;59.73;100541.31;12249993;19;19915;-85
2023/12/31 08:32:10;;;;;;;;;;;8.60;57.60;;;7.06;59.68;100545.13;12254172;19;19923;-83
2023/12/31 08:36:11;;;;;;;;;;;8.60;57.50;;;7.15;59.61;100549.06;12252642;19;19926;-84
2023/12/31 08:40:13;;;;;;;;;;;8.60;57.70;;;6.97;59.73;100509.19;12244741;19;20024;-84
2023/12/31 08:44:15;;;;;;;;;;;8.60;58.00;;;7.24;59.75;100543.50;12251718;19;19915;-84
2023/12/31 08:48:17;;;;;;;;;;;8.70;57.90;;;7.11;59.58;100516.38;12249653;19;19915;-83
2023/12/31 08:52:19;;;;;;;;;;;8.70;57.60;;;7.22;59.54;100521.94;12249944;19;20393;-83
2023/12/31 08:56:20;;;;;;;;;;;8.80;57.60;;;7.37;59.70;100517.78;12251127;19;19914;-83
2023/12/31 09:00:21;;;;;;;;;;;8.90;57.70;;;7.44;59.79;100527.00;12249797;19;19931;-84
2023/12/31 09:04:23;;;;;;;;;;;8.90;57.90;;;7.49;59.69;100523.28;12249744;19;19926;-84
2023/12/31 09:08:24;;;;;;;;;;;9.20;58.10;;;7.43;59.68;100510.56;12248497;19;19930;-84
2023/12/31 09:12:26;;;;;;;;;;;9.00;57.80;;;7.58;59.79;100521.16;12253202;19;19915;-84
2023/12/31 09:16:27;;;;;;;;;;;9.10;57.90;;;7.65;59.84;100519.97;12248008;19;19926;-83
2023/12/31 09:20:30;;;;;;;;;;;9.10;57.80;;;7.61;59.74;100510.63;12253221;19;20325;-85
2023/12/31 09:24:32;;;;;;;;;;;9.20;57.80;;;7.76;59.76;100538.50;12247818;19;19919;-84
2023/12/31 09:28:34;;;;;;;;;;;9.20;57.90;;;7.82;60.01;100520.03;12249933;19;19936;-84
2023/12/31 09:32:35;;;;;;;;;;;9.30;58.10;;;7.88;60.04;100509.31;12244274;19;19926;-86
2023/12/31 09:36:37;;;;;;;;;;;9.40;57.90;;;7.93;59.92;100502.16;12248828;19;19938;-84
2023/12/31 09:40:39;;;;;;;;;;;9.40;57.80;;;8.02;59.93;100500.03;12253880;19;19936;-85
2023/12/31 09:44:41;;;;;;;;;;;9.60;57.90;;;8.11;60.02;100497.84;12252612;19;20346;-85
2023/12/31 09:48:43;;;;;;;;;;;9.60;58.00;;;8.13;59.92;100472.59;12252297;19;19931;-85
2023/12/31 09:52:47;;;;;;;;;;;9.70;57.90;;;8.09;59.94;100439.84;12248752;19;19933;-84
2023/12/31 09:56:50;;;;;;;;;;;9.80;58.00;;;8.36;60.06;100471.44;12248666;19;19925;-84
2023/12/31 10:00:51;;;;;;;;;;;9.90;58.00;;;8.31;59.85;100439.63;12250310;19;19942;-85
2023/12/31 10:04:53;;;;;;;;;;;10.00;58.00;;;8.57;60.04;100461.75;12250213;19;19942;-84
2023/12/31 10:08:56;;;;;;;;;;;10.10;58.00;;;8.59;59.92;100459.91;12249308;19;19943;-84
2023/12/31 10:12:58;;;;;;;;;;;10.10;57.80;;;8.72;59.87;100454.94;12249982;19;19923;-84
2023/12/31 10:17:00;;;;;;;;;;;10.20;57.80;;;8.45;59.89;100386.06;12249513;19;19929;-84
2023/12/31 10:21:02;;;;;;;;;;;10.30;57.80;;;8.77;60.05;100418.22;12250085;19;20337;-85
2023/12/31 10:25:13;;;;;;;;;;;10.30;57.70;;;8.90;60.03;100426.22;12250000;19;20018;-85
2023/12/31 10:29:15;;;;;;;;;;;10.40;57.80;;;8.93;59.88;100410.44;12248816;19;19923;-85
2023/12/31 10:33:17;;;;;;;;;;;10.40;57.70;;;8.97;59.82;100401.56;12248677;19;19918;-84
2023/12/31 10:37:21;;;;;;;;;;;10.50;57.70;;;9.08;59.99;100394.00;12247752;19;19923;-85
2023/12/31 10:41:25;;;;;;;;;;;10.60;57.80;;;9.14;60.00;100377.19;12248025;19;19930;-84
2023/12/31 10:45:27;;;;;;;;;;;10.60;57.60;;;9.17;59.88;100364.84;12251667;19;19947;-85
2023/12/31 10:49:30;;;;;;;;;;;10.70;57.70;;;9.17;59.97;100344.00;12249728;19;19928;-84
2023/12/31 10:53:37;;;;;;;;;;;10.70;57.60;;;9.24;59.83;100340.13;12248461;19;19919;-86
2023/12/31 10:57:41;;;;;;;;;;;10.80;57.60;;;9.27;59.99;100339.13;12245090;19;20325;-84
2023/12/31 11:01:43;;;;;;;;;;;10.80;57.50;;;9.20;59.88;100294.31;12246068;19;20141;-86
2023/12/31 11:05:44;;;;;;;;;;;10.90;57.40;;;9.42;60.06;100309.56;12247648;19;19931;-86
2023/12/31 11:09:47;;;;;;;;;;;10.90;57.30;;;9.52;59.92;100305.50;12246511;19;19930;-86
2023/12/31 11:13:55;;;;;;;;;;;11.00;57.40;;;9.44;59.80;100271.25;12245584;19;19922;-84
2023/12/31 11:18:21;;;;;;;;;;;11.00;57.40;;;9.60;59.94;100273.78;12242938;19;19927;-84
2023/12/31 11:22:22;;;;;;;;;;;11.10;57.40;;;9.64;59.99;100264.00;12248806;19;19911;-87
2023/12/31 11:26:24;;;;;;;;;;;11.00;57.30;;;9.65;59.92;100263.94;12248000;19;19929;-85
2023/12/31 11:30:48;;;;;;;;;;;11.10;57.20;;;9.70;59.72;100266.28;12249957;19;19927;-87
2023/12/31 11:34:53;;;;;;;;;;;11.20;57.20;;;9.69;59.87;100235.91;12246664;19;20414;-84
2023/12/31 11:39:00;;;;;;;;;;;11.20;57.20;;;9.66;59.99;100234.31;12249124;19;20281;-84
2023/12/31 11:43:09;;;;;;;;;;;11.20;57.20;;;9.69;60.01;100238.53;12254841;19;19928;-84
2023/12/31 11:47:11;;;;;;;;;;;11.20;57.20;;;9.79;59.82;100267.50;12254892;19;19927;-84
2023/12/31 11:51:15;;;;;;;;;;;11.30;57.20;;;9.81;59.85;100273.47;12257614;19;19927;-84
2023/12/31 11:55:17;;;;;;;;;;;11.30;57.20;;;9.85;59.68;100280.16;12258885;19;19923;-85
2023/12/31 11:59:19;;;;;;;;;;;11.30;57.20;;;9.89;59.84;100266.03;12257263;19;19915;-85
2023/12/31 12:03:21;;;;;;;;;;;11.30;57.10;;;9.84;59.82;100242.00;12254201;19;19982;-84
2023/12/31 12:07:23;;;;;;;;;;;11.40;57.10;;;9.95;59.68;100239.56;12254974;19;19969;-85
2023/12/31 12:11:26;;;;;;;;;;;11.40;57.10;;;9.99;59.71;100230.66;12258522;19;19927;-85
2023/12/31 12:15:36;;;;;;;;;;;11.40;57.00;;;9.91;59.78;100210.25;12255827;19;19923;-83
2023/12/31 12:19:37;;;;;;;;;;;11.50;57.00;;;9.91;59.85;100194.59;12250479;19;20249;-83
2023/12/31 12:23:39;;;;;;;;;;;11.50;57.00;;;10.05;59.79;100201.56;12243602;19;19918;-83
2023/12/31 12:27:40;;;;;;;;;;;11.50;57.00;;;10.12;59.63;100192.41;12240684;19;19982;-85
2023/12/31 12:31:47;;;;;;;;;;;11.60;57.00;;;10.11;59.77;100182.91;12246006;19;20542;-84
2023/12/31 12:35:49;;;;;;;;;;;11.60;57.00;;;9.95;59.71;100145.69;12245506;19;19922;-85
2023/12/31 12:39:57;;;;;;;;;;;11.60;56.90;;;10.17;59.87;100185.16;12248037;19;19926;-84
2023/12/31 12:43:59;;;;;;;;;;;11.60;57.00;;;10.22;59.59;100173.59;12244526;19;19915;-83
2023/12/31 12:48:01;;;;;;;;;;;11.70;57.00;;;10.22;59.73;100158.78;12246894;19;19933;-83
2023/12/31 12:52:03;;;;;;;;;;;11.70;56.90;;;10.26;59.83;100151.56;12247414;19;19918;-84
2023/12/31 12:56:05;;;;;;;;;;;11.70;56.90;;;10.27;59.78;100145.44;12250003;19;19919;-84
2023/12/31 13:00:09;;;;;;;;;;;11.80;57.00;;;10.28;59.97;100145.34;12253627;19;19915;-85
2023/12/31 13:04:12;;;;;;;;;;;11.70;57.20;;;10.30;59.75;100140.88;12245507;19;20308;-84
2023/12/31 13:08:14;;;;;;;;;;;11.80;56.90;;;10.05;59.63;100099.84;12242011;19;19915;-84
2023/12/31 13:12:15;;;;;;;;;;;11.80;56.90;;;10.28;59.78;100129.69;12251151;19;19951;-84
2023/12/31 13:16:16;;;;;;;;;;;11.80;56.90;;;10.31;59.64;100115.63;12246803;19;20012;-85
2023/12/31 13:20:17;;;;;;;;;;;11.80;56.80;;;10.38;59.59;100132.56;12248834;19;19915;-84
2023/12/31 13:24:20;;;;;;;;;;;11.80;56.80;;;10.32;59.50;100112.09;12247244;19;19922;-84
2023/12/31 13:28:21;;;;;;;;;;;11.80;56.70;;;10.29;59.73;100092.25;12247942;19;19915;-84
2023/12/31 13:32:23;;;;;;;;;;;11.80;56.70;;;10.37;59.72;100107.44;12251286;19;20329;-84
2023/12/31 13:36:24;;;;;;;;;;;11.70;56.70;;;10.35;59.57;100085.81;12246315;19;19998;-84
2023/12/31 13:40:26;;;;;;;;;;;11.80;56.80;;;10.35;59.65;100089.25;12246051;19;19915;-84
2023/12/31 13:44:27;;;;;;;;;;;11.80;56.70;;;10.38;59.69;100080.38;12242858;19;19926;-83
2023/12/31 13:48:29;;;;;;;;;;;11.80;56.60;;;10.23;59.47;100061.28;12242365;19;19922;-84
2023/12/31 13:52:33;;;;;;;;;;;11.80;56.70;;;10.38;59.67;100069.94;12242270;19;19949;-84
2023/12/31 13:56:34;;;;;;;;;;;11.80;56.70;;;10.34;59.62;100058.00;12243948;19;19918;-84
2023/12/31 14:00:36;;;;;;;;;;;11.80;56.70;;;10.35;59.49;100064.91;12243784;19;19923;-83
2023/12/31 14:04:37;;;;;;;;;;;11.80;56.60;;;10.31;59.57;100063.44;12235296;19;19938;-84
2023/12/31 14:08:38;;;;;;;;;;;11.80;56.60;;;10.40;59.57;100063.69;12242138;19;20011;-84
2023/12/31 14:12:40;;;;;;;;;;;11.80;56.60;;;10.35;59.52;100064.91;12243653;19;19944;-83
2023/12/31 14:16:42;;;;;;;;;;;11.80;56.50;;;10.35;59.48;100041.44;12239395;19;19927;-84
2023/12/31 14:20:44;;;;;;;;;;;11.80;56.50;;;10.32;59.51;100044.25;12242488;19;20277;-84
2023/12/31 14:24:45;;;;;;;;;;;11.80;56.60;;;10.35;59.55;100044.03;12237333;19;20325;-84
2023/12/31 14:28:47;;;;;;;;;;;11.80;56.60;;;10.37;59.63;100044.78;12245685;19;20271;-84
2023/12/31 14:32:49;;;;;;;;;;;11.80;56.60;;;10.32;59.41;100042.47;12244582;19;19937;-84
2023/12/31 14:36:51;;;;;;;;;;;11.80;56.60;;;10.27;59.44;100020.19;12240544;19;19921;-84
2023/12/31 14:40:52;;;;;;;;;;;11.80;56.60;;;10.33;59.47;100041.53;12242866;19;19927;-83
2023/12/31 14:44:54;;;;;;;;;;;11.80;56.60;;;10.38;59.57;100034.22;12242450;19;20257;-84
2023/12/31 14:48:55;;;;;;;;;;;11.70;56.60;;;10.41;59.60;100051.47;12235357;19;19937;-84
2023/12/31 14:52:57;;;;;;;;;;;11.80;56.50;;;10.22;59.41;100007.44;12243970;19;20269;-84
2023/12/31 14:56:58;;;;;;;;;;;11.80;56.60;;;10.40;59.36;100041.97;12237405;19;19915;-85
2023/12/31 15:01:00;;;;;;;;;;;11.80;56.60;;;10.40;59.36;100028.91;12248714;19;19923;-84
2023/12/31 15:05:02;;;;;;;;;;;11.80;56.60;;;10.38;59.46;100015.13;12246227;19;19923;-84
2023/12/31 15:09:05;;;;;;;;;;;11.70;56.90;;;10.42;59.45;100019.19;12253598;19;20164;-84
2023/12/31 15:13:07;;;;;;;;;;;11.80;56.60;;;10.25;59.42;99985.53;12251878;19;20392;-83
2023/12/31 15:17:09;;;;;;;;;;;11.80;56.60;;;10.34;59.38;100000.59;12251493;19;20642;-85
2023/12/31 15:21:10;;;;;;;;;;;11.80;56.60;;;10.40;59.38;100015.88;12259011;19;19922;-85
2023/12/31 15:25:12;;;;;;;;;;;11.80;56.60;;;10.20;59.37;99981.44;12258833;19;19926;-85
2023/12/31 15:29:13;;;;;;;;;;;11.80;56.50;;;10.28;59.48;99986.19;12259746;19;19946;-84
2023/12/31 15:33:14;;;;;;;;;;;11.80;56.60;;;10.28;59.51;99977.53;12256927;19;19937;-85
2023/12/31 15:37:16;;;;;;;;;;;11.80;56.60;;;10.41;59.56;100002.69;12253460;19;20271;-85
2023/12/31 15:41:18;;;;;;;;;;;11.80;56.60;;;10.38;59.55;100002.06;12255851;19;19922;-85
2023/12/31 15:45:20;;;;;;;;;;;11.80;56.70;;;10.46;59.52;100020.69;12258162;19;19987;-85
2023/12/31 15:49:21;;;;;;;;;;;11.80;56.70;;;10.41;59.33;100009.69;12259706;19;20264;-85
2023/12/31 15:53:23;;;;;;;;;;;11.80;56.70;;;10.29;59.47;99972.22;12258190;19;20256;-85
2023/12/31 15:57:24;;;;;;;;;;;11.80;56.70;;;10.40;59.48;99977.56;12254688;19;19911;-85
2023/12/31 16:01:26;;;;;;;;;;;11.80;56.70;;;10.40;59.41;99990.59;12257821;19;19938;-85
2023/12/31 16:05:27;;;;;;;;;;;11.80;56.70;;;10.40;59.25;99971.50;12255263;19;20391;-85
2023/12/31 16:09:29;;;;;;;;;;;11.80;56.70;;;10.44;59.37;99983.41;12259780;19;19914;-85
2023/12/31 16:13:30;;;;;;;;;;;11.90;56.70;;;10.46;59.34;99989.34;12257570;19;19919;-85
2023/12/31 16:17:34;;;;;;;;;;;11.80;56.70;;;10.43;59.48;99979.13;12252774;19;19931;-85
2023/12/31 16:21:36;;;;;;;;;;;11.80;56.70;;;10.48;59.32;99984.03;12251684;19;19918;-85
2023/12/31 16:25:39;;;;;;;;;;;11.80;56.70;;;10.48;59.52;99982.28;12254227;19;19911;-86
2023/12/31 16:29:40;;;;;;;;;;;11.80;56.70;;;10.45;59.48;99971.19;12254056;19;20398;-86
2023/12/31 16:33:42;;;;;;;;;;;11.80;56.70;;;10.46;59.31;99973.69;12253887;19;19934;-87
2023/12/31 16:37:44;;;;;;;;;;;11.80;56.70;;;10.43;59.33;99958.25;12246791;19;19925;-86
2023/12/31 16:41:45;;;;;;;;;;;11.90;56.80;;;10.53;59.36;99980.19;12253174;19;19919;-85
2023/12/31 16:45:47;;;;;;;;;;;11.90;56.80;;;10.33;59.39;99941.53;12253211;19;19924;-86
2023/12/31 16:49:48;;;;;;;;;;;11.90;56.80;;;10.46;59.37;99963.25;12251062;19;19925;-85
2023/12/31 16:53:51;;;;;;;;;;;11.90;56.80;;;10.38;59.54;99950.72;12253536;19;19934;-85
2023/12/31 16:57:53;;;;;;;;;;;11.90;56.80;;;10.55;59.29;99983.50;12250796;19;19919;-85
2023/12/31 17:01:54;;;;;;;;;;;11.90;56.80;;;10.53;59.27;99976.72;12254945;19;19930;-85
2023/12/31 17:05:56;;;;;;;;;;;11.90;56.80;;;10.51;59.45;99970.78;12251660;19;19932;-85
2023/12/31 17:10:01;;;;;;;;;;;11.90;56.80;;;10.55;59.45;99975.69;12254876;19;19926;-85
2023/12/31 17:14:03;;;;;;;;;;;11.80;56.70;;;10.48;59.63;99971.00;12253120;19;19974;-85
2023/12/31 17:18:04;;;;;;;;;;;11.90;56.80;;;10.57;59.49;99979.03;12246825;19;20336;-86
2023/12/31 17:22:06;;;;;;;;;;;11.90;56.80;;;10.49;59.33;99962.22;12252935;19;20265;-85
2023/12/31 17:26:07;;;;;;;;;;;11.90;56.80;;;10.39;59.38;99935.88;12248575;19;19929;-85
2023/12/31 17:30:09;;;;;;;;;;;11.90;56.80;;;10.51;59.48;99962.97;12251661;19;19915;-85
2023/12/31 17:34:10;;;;;;;;;;;11.90;56.80;;;10.52;59.44;99959.41;12251024;19;19934;-87
2023/12/31 17:38:12;;;;;;;;;;;11.90;56.80;;;10.52;59.42;99955.00;12248152;19;19926;-85
2023/12/31 17:42:13;;;;;;;;;;;11.90;56.80;;;10.26;59.32;99917.59;12249584;19;19922;-85
2023/12/31 17:46:15;;;;;;;;;;;11.90;56.70;;;10.35;59.36;99934.44;12250630;19;19923;-85
2023/12/31 17:50:16;;;;;;;;;;;11.90;56.80;;;10.55;59.50;99969.63;12248849;19;19915;-85
2023/12/31 17:54:18;;;;;;;;;;;11.90;56.80;;;10.48;59.28;99950.13;12252173;19;19919;-85
2023/12/31 17:58:23;;;;;;;;;;;11.90;57.20;;;10.53;59.22;99964.53;12247300;19;19982;-85
2023/12/31 18:02:25;;;;;;;;;;;11.80;56.70;;;10.56;59.37;99960.88;12250695;19;19919;-85
2023/12/31 18:06:27;;;;;;;;;;;11.90;56.80;;;10.48;59.41;99956.16;12249462;19;20325;-85
2023/12/31 18:10:28;;;;;;;;;;;11.90;56.80;;;10.51;59.36;99966.41;12250800;19;19936;-85
2023/12/31 18:14:30;;;;;;;;;;;11.90;56.80;;;10.58;59.45;99969.41;12248266;19;19926;-85
2023/12/31 18:18:32;;;;;;;;;;;11.90;56.80;;;10.56;59.30;99974.75;12247024;19;19944;-85
2023/12/31 18:22:34;;;;;;;;;;;11.90;56.80;;;10.48;59.37;99973.59;12248371;19;19922;-86